sensor_id;sensor_type;location;lat;lon;timestamp;P1;durP1;ratioP1;P2;durP2;ratioP2
54167;SDS011;68429;50.958;3.592;2023-11-19T00:02:13;20.80;;;3.38;;
54167;SDS011;68429;50.958;3.592;2023-11-19T00:04:39;18.55;;;3.90;;
54167;SDS011;68429;50.958;3.592;2023-11-19T00:07:05;23.80;;;3.20;;
54167;SDS011;68429;50.958;3.592;2023-11-19T00:09:35;20.17;;;5.28;;
54167;SDS011;68429;50.958;3.592;2023-11-19T00:12:03;27.65;;;4.20;;
54167;SDS011;68429;50.958;3.592;2023-11-19T00:14:29;21.83;;;4.22;;
54167;SDS011;68429;50.958;3.592;2023-11-19T00:16:55;22.10;;;4.05;;
54167;SDS011;68429;50.958;3.592;2023-11-19T00:19:21;19.17;;;3.85;;
54167;SDS011;68429;50.958;3.592;2023-11-19T00:21:47;26.25;;;4.22;;
54167;SDS011;68429;50.958;3.592;2023-11-19T00:24:12;29.52;;;4.47;;
54167;SDS011;68429;50.958;3.592;2023-11-19T00:26:41;22.83;;;4.32;;
54167;SDS011;68429;50.958;3.592;2023-11-19T00:29:07;21.45;;;4.10;;
54167;SDS011;68429;50.958;3.592;2023-11-19T00:31:32;31.33;;;4.88;;
54167;SDS011;68429;50.958;3.592;2023-11-19T00:33:58;23.52;;;4.47;;
54167;SDS011;68429;50.958;3.592;2023-11-19T00:36:24;25.48;;;4.78;;
54167;SDS011;68429;50.958;3.592;2023-11-19T00:38:50;22.98;;;4.57;;
54167;SDS011;68429;50.958;3.592;2023-11-19T00:41:17;30.75;;;4.60;;
54167;SDS011;68429;50.958;3.592;2023-11-19T00:43:43;25.75;;;5.03;;
54167;SDS011;68429;50.958;3.592;2023-11-19T00:46:09;31.45;;;5.55;;
54167;SDS011;68429;50.958;3.592;2023-11-19T00:48:36;32.17;;;5.85;;
54167;SDS011;68429;50.958;3.592;2023-11-19T00:51:02;28.17;;;5.38;;
54167;SDS011;68429;50.958;3.592;2023-11-19T00:53:29;27.13;;;4.80;;
54167;SDS011;68429;50.958;3.592;2023-11-19T00:55:55;38.35;;;7.03;;
54167;SDS011;68429;50.958;3.592;2023-11-19T00:58:22;37.47;;;7.13;;
54167;SDS011;68429;50.958;3.592;2023-11-19T01:00:47;37.72;;;7.28;;
54167;SDS011;68429;50.958;3.592;2023-11-19T01:03:13;31.58;;;5.82;;
54167;SDS011;68429;50.958;3.592;2023-11-19T01:05:40;37.47;;;6.03;;
54167;SDS011;68429;50.958;3.592;2023-11-19T01:08:06;36.75;;;5.50;;
54167;SDS011;68429;50.958;3.592;2023-11-19T01:10:33;34.67;;;6.00;;
54167;SDS011;68429;50.958;3.592;2023-11-19T01:12:59;31.50;;;5.70;;
54167;SDS011;68429;50.958;3.592;2023-11-19T01:15:24;39.45;;;6.03;;
54167;SDS011;68429;50.958;3.592;2023-11-19T01:17:51;33.58;;;5.80;;
54167;SDS011;68429;50.958;3.592;2023-11-19T01:20:16;36.35;;;7.20;;
54167;SDS011;68429;50.958;3.592;2023-11-19T01:22:42;35.55;;;5.78;;
54167;SDS011;68429;50.958;3.592;2023-11-19T01:25:08;36.72;;;6.68;;
54167;SDS011;68429;50.958;3.592;2023-11-19T01:27:34;31.10;;;5.47;;
54167;SDS011;68429;50.958;3.592;2023-11-19T01:30:00;31.00;;;5.18;;
54167;SDS011;68429;50.958;3.592;2023-11-19T01:32:28;42.53;;;6.80;;
54167;SDS011;68429;50.958;3.592;2023-11-19T01:34:54;37.75;;;6.93;;
54167;SDS011;68429;50.958;3.592;2023-11-19T01:37:20;33.83;;;6.18;;
54167;SDS011;68429;50.958;3.592;2023-11-19T01:39:45;37.58;;;6.38;;
54167;SDS011;68429;50.958;3.592;2023-11-19T01:42:11;32.70;;;6.32;;
54167;SDS011;68429;50.958;3.592;2023-11-19T01:44:37;37.35;;;5.60;;
54167;SDS011;68429;50.958;3.592;2023-11-19T01:47:03;33.20;;;5.70;;
54167;SDS011;68429;50.958;3.592;2023-11-19T01:49:29;31.02;;;6.00;;
54167;SDS011;68429;50.958;3.592;2023-11-19T01:51:57;34.33;;;5.82;;
54167;SDS011;68429;50.958;3.592;2023-11-19T01:54:23;35.35;;;5.25;;
54167;SDS011;68429;50.958;3.592;2023-11-19T01:56:49;30.85;;;5.50;;
54167;SDS011;68429;50.958;3.592;2023-11-19T01:59:14;37.53;;;6.47;;
54167;SDS011;68429;50.958;3.592;2023-11-19T02:01:41;39.72;;;7.80;;
54167;SDS011;68429;50.958;3.592;2023-11-19T02:04:08;40.45;;;6.78;;
54167;SDS011;68429;50.958;3.592;2023-11-19T02:06:34;48.90;;;7.72;;
54167;SDS011;68429;50.958;3.592;2023-11-19T02:09:01;41.13;;;6.53;;
54167;SDS011;68429;50.958;3.592;2023-11-19T02:11:32;45.83;;;6.90;;
54167;SDS011;68429;50.958;3.592;2023-11-19T02:13:58;33.50;;;6.50;;
54167;SDS011;68429;50.958;3.592;2023-11-19T02:16:24;33.45;;;5.90;;
54167;SDS011;68429;50.958;3.592;2023-11-19T02:18:50;40.95;;;6.15;;
54167;SDS011;68429;50.958;3.592;2023-11-19T02:21:16;39.20;;;6.57;;
54167;SDS011;68429;50.958;3.592;2023-11-19T02:23:43;42.53;;;6.38;;
54167;SDS011;68429;50.958;3.592;2023-11-19T02:29:18;41.05;;;6.53;;
54167;SDS011;68429;50.958;3.592;2023-11-19T02:31:43;43.47;;;7.00;;
54167;SDS011;68429;50.958;3.592;2023-11-19T02:34:10;45.53;;;7.72;;
54167;SDS011;68429;50.958;3.592;2023-11-19T02:36:37;40.95;;;7.70;;
54167;SDS011;68429;50.958;3.592;2023-11-19T02:39:03;34.25;;;6.25;;
54167;SDS011;68429;50.958;3.592;2023-11-19T02:41:28;46.15;;;7.25;;
54167;SDS011;68429;50.958;3.592;2023-11-19T02:43:55;49.85;;;8.52;;
54167;SDS011;68429;50.958;3.592;2023-11-19T02:46:20;43.20;;;6.47;;
54167;SDS011;68429;50.958;3.592;2023-11-19T02:48:46;45.65;;;7.68;;
54167;SDS011;68429;50.958;3.592;2023-11-19T02:51:11;42.40;;;7.07;;
54167;SDS011;68429;50.958;3.592;2023-11-19T02:53:37;29.60;;;5.50;;
54167;SDS011;68429;50.958;3.592;2023-11-19T02:56:04;31.33;;;6.00;;
54167;SDS011;68429;50.958;3.592;2023-11-19T02:58:40;39.75;;;7.03;;
54167;SDS011;68429;50.958;3.592;2023-11-19T03:01:08;39.83;;;7.25;;
54167;SDS011;68429;50.958;3.592;2023-11-19T03:03:47;43.75;;;7.30;;
54167;SDS011;68429;50.958;3.592;2023-11-19T03:06:19;38.42;;;6.45;;
54167;SDS011;68429;50.958;3.592;2023-11-19T03:08:44;40.58;;;6.88;;
54167;SDS011;68429;50.958;3.592;2023-11-19T03:11:10;47.58;;;8.20;;
54167;SDS011;68429;50.958;3.592;2023-11-19T03:13:36;50.70;;;7.63;;
54167;SDS011;68429;50.958;3.592;2023-11-19T03:16:01;33.38;;;6.72;;
54167;SDS011;68429;50.958;3.592;2023-11-19T03:18:27;32.80;;;6.53;;
54167;SDS011;68429;50.958;3.592;2023-11-19T03:20:53;47.90;;;6.47;;
54167;SDS011;68429;50.958;3.592;2023-11-19T03:23:19;39.92;;;7.03;;
54167;SDS011;68429;50.958;3.592;2023-11-19T03:25:44;40.28;;;7.15;;
54167;SDS011;68429;50.958;3.592;2023-11-19T03:28:10;43.00;;;6.38;;
54167;SDS011;68429;50.958;3.592;2023-11-19T03:30:36;48.72;;;7.63;;
54167;SDS011;68429;50.958;3.592;2023-11-19T03:33:01;44.28;;;7.05;;
54167;SDS011;68429;50.958;3.592;2023-11-19T03:35:27;40.33;;;6.60;;
54167;SDS011;68429;50.958;3.592;2023-11-19T03:37:53;53.58;;;8.15;;
54167;SDS011;68429;50.958;3.592;2023-11-19T03:40:19;34.75;;;6.85;;
54167;SDS011;68429;50.958;3.592;2023-11-19T03:42:45;37.08;;;7.88;;
54167;SDS011;68429;50.958;3.592;2023-11-19T03:45:11;40.65;;;6.55;;
54167;SDS011;68429;50.958;3.592;2023-11-19T03:47:37;48.38;;;9.35;;
54167;SDS011;68429;50.958;3.592;2023-11-19T03:50:03;45.13;;;7.07;;
54167;SDS011;68429;50.958;3.592;2023-11-19T03:52:29;45.08;;;7.63;;
54167;SDS011;68429;50.958;3.592;2023-11-19T03:54:55;52.58;;;8.57;;
54167;SDS011;68429;50.958;3.592;2023-11-19T03:57:24;45.20;;;7.60;;
54167;SDS011;68429;50.958;3.592;2023-11-19T03:59:49;49.45;;;6.88;;
54167;SDS011;68429;50.958;3.592;2023-11-19T04:02:15;41.63;;;7.47;;
54167;SDS011;68429;50.958;3.592;2023-11-19T04:04:41;44.00;;;8.00;;
54167;SDS011;68429;50.958;3.592;2023-11-19T04:07:07;52.58;;;7.78;;
54167;SDS011;68429;50.958;3.592;2023-11-19T04:09:33;38.88;;;7.32;;
54167;SDS011;68429;50.958;3.592;2023-11-19T04:11:59;57.65;;;9.65;;
54167;SDS011;68429;50.958;3.592;2023-11-19T04:14:25;54.20;;;9.05;;
54167;SDS011;68429;50.958;3.592;2023-11-19T04:16:51;51.33;;;8.93;;
54167;SDS011;68429;50.958;3.592;2023-11-19T04:19:18;43.47;;;6.78;;
54167;SDS011;68429;50.958;3.592;2023-11-19T04:21:44;52.70;;;8.93;;
54167;SDS011;68429;50.958;3.592;2023-11-19T04:24:10;49.17;;;8.43;;
54167;SDS011;68429;50.958;3.592;2023-11-19T04:26:40;43.20;;;7.47;;
54167;SDS011;68429;50.958;3.592;2023-11-19T04:29:11;55.40;;;9.43;;
54167;SDS011;68429;50.958;3.592;2023-11-19T04:31:37;52.65;;;9.15;;
54167;SDS011;68429;50.958;3.592;2023-11-19T04:34:04;56.22;;;9.68;;
54167;SDS011;68429;50.958;3.592;2023-11-19T04:36:31;63.45;;;10.18;;
54167;SDS011;68429;50.958;3.592;2023-11-19T04:38:58;58.10;;;9.68;;
54167;SDS011;68429;50.958;3.592;2023-11-19T04:41:24;48.75;;;7.65;;
54167;SDS011;68429;50.958;3.592;2023-11-19T04:43:52;51.38;;;8.52;;
54167;SDS011;68429;50.958;3.592;2023-11-19T04:46:18;56.70;;;9.73;;
54167;SDS011;68429;50.958;3.592;2023-11-19T04:48:44;52.15;;;8.75;;
54167;SDS011;68429;50.958;3.592;2023-11-19T04:51:10;56.30;;;8.45;;
54167;SDS011;68429;50.958;3.592;2023-11-19T04:53:35;47.67;;;7.80;;
54167;SDS011;68429;50.958;3.592;2023-11-19T04:56:01;45.67;;;8.35;;
54167;SDS011;68429;50.958;3.592;2023-11-19T04:58:36;55.65;;;7.93;;
54167;SDS011;68429;50.958;3.592;2023-11-19T05:01:02;54.33;;;8.38;;
54167;SDS011;68429;50.958;3.592;2023-11-19T05:03:29;64.65;;;9.80;;
54167;SDS011;68429;50.958;3.592;2023-11-19T05:05:56;44.25;;;8.38;;
54167;SDS011;68429;50.958;3.592;2023-11-19T05:08:22;59.70;;;8.07;;
54167;SDS011;68429;50.958;3.592;2023-11-19T05:10:47;59.65;;;9.80;;
54167;SDS011;68429;50.958;3.592;2023-11-19T05:13:13;54.85;;;8.63;;
54167;SDS011;68429;50.958;3.592;2023-11-19T05:15:40;48.92;;;7.70;;
54167;SDS011;68429;50.958;3.592;2023-11-19T05:18:05;44.13;;;8.07;;
54167;SDS011;68429;50.958;3.592;2023-11-19T05:20:31;32.75;;;7.30;;
54167;SDS011;68429;50.958;3.592;2023-11-19T05:22:57;42.80;;;8.93;;
54167;SDS011;68429;50.958;3.592;2023-11-19T05:25:25;51.80;;;9.48;;
54167;SDS011;68429;50.958;3.592;2023-11-19T05:27:51;43.22;;;7.28;;
54167;SDS011;68429;50.958;3.592;2023-11-19T05:30:18;47.05;;;8.18;;
54167;SDS011;68429;50.958;3.592;2023-11-19T05:32:44;47.78;;;7.68;;
54167;SDS011;68429;50.958;3.592;2023-11-19T05:35:10;43.13;;;7.07;;
54167;SDS011;68429;50.958;3.592;2023-11-19T05:37:36;61.15;;;8.38;;
54167;SDS011;68429;50.958;3.592;2023-11-19T05:40:02;49.30;;;8.60;;
54167;SDS011;68429;50.958;3.592;2023-11-19T05:42:31;45.83;;;9.30;;
54167;SDS011;68429;50.958;3.592;2023-11-19T05:44:57;44.80;;;7.22;;
54167;SDS011;68429;50.958;3.592;2023-11-19T05:47:22;45.35;;;7.70;;
54167;SDS011;68429;50.958;3.592;2023-11-19T05:49:48;43.97;;;7.13;;
54167;SDS011;68429;50.958;3.592;2023-11-19T05:52:14;56.83;;;9.50;;
54167;SDS011;68429;50.958;3.592;2023-11-19T05:54:39;46.58;;;7.25;;
54167;SDS011;68429;50.958;3.592;2023-11-19T05:57:05;42.50;;;7.55;;
54167;SDS011;68429;50.958;3.592;2023-11-19T05:59:34;52.75;;;9.05;;
54167;SDS011;68429;50.958;3.592;2023-11-19T06:02:01;51.58;;;8.52;;
54167;SDS011;68429;50.958;3.592;2023-11-19T06:04:27;46.75;;;7.95;;
54167;SDS011;68429;50.958;3.592;2023-11-19T06:06:53;49.40;;;8.90;;
54167;SDS011;68429;50.958;3.592;2023-11-19T06:09:20;55.17;;;9.05;;
54167;SDS011;68429;50.958;3.592;2023-11-19T06:11:47;49.33;;;8.80;;
54167;SDS011;68429;50.958;3.592;2023-11-19T06:14:14;53.30;;;8.00;;
54167;SDS011;68429;50.958;3.592;2023-11-19T06:16:39;56.72;;;9.18;;
54167;SDS011;68429;50.958;3.592;2023-11-19T06:19:05;42.35;;;7.97;;
54167;SDS011;68429;50.958;3.592;2023-11-19T06:21:31;48.83;;;8.35;;
54167;SDS011;68429;50.958;3.592;2023-11-19T06:23:56;48.90;;;7.93;;
54167;SDS011;68429;50.958;3.592;2023-11-19T06:26:23;48.08;;;8.68;;
54167;SDS011;68429;50.958;3.592;2023-11-19T06:28:49;59.33;;;8.07;;
54167;SDS011;68429;50.958;3.592;2023-11-19T06:31:14;48.50;;;7.78;;
54167;SDS011;68429;50.958;3.592;2023-11-19T06:33:41;57.17;;;9.27;;
54167;SDS011;68429;50.958;3.592;2023-11-19T06:36:07;42.95;;;7.30;;
54167;SDS011;68429;50.958;3.592;2023-11-19T06:38:34;56.50;;;8.43;;
54167;SDS011;68429;50.958;3.592;2023-11-19T06:41:00;50.33;;;9.07;;
54167;SDS011;68429;50.958;3.592;2023-11-19T06:43:26;53.25;;;9.23;;
54167;SDS011;68429;50.958;3.592;2023-11-19T06:45:53;56.58;;;8.82;;
54167;SDS011;68429;50.958;3.592;2023-11-19T06:48:19;45.17;;;8.32;;
54167;SDS011;68429;50.958;3.592;2023-11-19T06:50:45;51.00;;;7.57;;
54167;SDS011;68429;50.958;3.592;2023-11-19T06:53:10;46.50;;;7.93;;
54167;SDS011;68429;50.958;3.592;2023-11-19T06:55:36;41.83;;;8.05;;
54167;SDS011;68429;50.958;3.592;2023-11-19T06:58:02;48.72;;;7.70;;
54167;SDS011;68429;50.958;3.592;2023-11-19T07:00:28;50.28;;;9.50;;
54167;SDS011;68429;50.958;3.592;2023-11-19T07:02:54;54.45;;;9.05;;
54167;SDS011;68429;50.958;3.592;2023-11-19T07:05:20;47.45;;;7.05;;
54167;SDS011;68429;50.958;3.592;2023-11-19T07:07:46;59.78;;;8.80;;
54167;SDS011;68429;50.958;3.592;2023-11-19T07:10:12;54.45;;;9.23;;
54167;SDS011;68429;50.958;3.592;2023-11-19T07:12:38;47.28;;;7.03;;
54167;SDS011;68429;50.958;3.592;2023-11-19T07:15:03;53.70;;;8.32;;
54167;SDS011;68429;50.958;3.592;2023-11-19T07:17:30;43.45;;;7.60;;
54167;SDS011;68429;50.958;3.592;2023-11-19T07:19:56;48.08;;;7.53;;
54167;SDS011;68429;50.958;3.592;2023-11-19T07:22:24;50.05;;;7.93;;
54167;SDS011;68429;50.958;3.592;2023-11-19T07:24:50;48.28;;;9.05;;
54167;SDS011;68429;50.958;3.592;2023-11-19T07:27:18;47.63;;;6.90;;
54167;SDS011;68429;50.958;3.592;2023-11-19T07:29:44;46.05;;;7.03;;
54167;SDS011;68429;50.958;3.592;2023-11-19T07:32:10;53.65;;;8.93;;
54167;SDS011;68429;50.958;3.592;2023-11-19T07:34:36;41.90;;;8.15;;
54167;SDS011;68429;50.958;3.592;2023-11-19T07:37:01;44.58;;;8.25;;
54167;SDS011;68429;50.958;3.592;2023-11-19T07:39:29;41.72;;;7.13;;
54167;SDS011;68429;50.958;3.592;2023-11-19T07:41:54;49.50;;;8.20;;
54167;SDS011;68429;50.958;3.592;2023-11-19T07:44:20;48.33;;;8.15;;
54167;SDS011;68429;50.958;3.592;2023-11-19T07:46:46;50.30;;;8.38;;
54167;SDS011;68429;50.958;3.592;2023-11-19T07:49:13;41.45;;;8.20;;
54167;SDS011;68429;50.958;3.592;2023-11-19T07:51:39;49.97;;;8.48;;
54167;SDS011;68429;50.958;3.592;2023-11-19T07:54:05;52.40;;;8.13;;
54167;SDS011;68429;50.958;3.592;2023-11-19T07:56:34;47.58;;;8.00;;
54167;SDS011;68429;50.958;3.592;2023-11-19T08:01:26;57.63;;;9.15;;
54167;SDS011;68429;50.958;3.592;2023-11-19T08:03:52;43.80;;;7.40;;
54167;SDS011;68429;50.958;3.592;2023-11-19T08:06:18;55.72;;;9.68;;
54167;SDS011;68429;50.958;3.592;2023-11-19T08:08:43;49.33;;;7.70;;
54167;SDS011;68429;50.958;3.592;2023-11-19T08:11:10;52.72;;;8.98;;
54167;SDS011;68429;50.958;3.592;2023-11-19T08:13:35;46.65;;;7.82;;
54167;SDS011;68429;50.958;3.592;2023-11-19T08:16:01;45.42;;;7.78;;
54167;SDS011;68429;50.958;3.592;2023-11-19T08:18:27;54.47;;;9.10;;
54167;SDS011;68429;50.958;3.592;2023-11-19T08:20:52;49.90;;;8.77;;
54167;SDS011;68429;50.958;3.592;2023-11-19T08:23:19;44.30;;;7.38;;
54167;SDS011;68429;50.958;3.592;2023-11-19T08:25:45;51.05;;;9.15;;
54167;SDS011;68429;50.958;3.592;2023-11-19T08:28:10;40.83;;;8.05;;
54167;SDS011;68429;50.958;3.592;2023-11-19T08:30:36;51.72;;;8.70;;
54167;SDS011;68429;50.958;3.592;2023-11-19T08:33:02;47.42;;;7.82;;
54167;SDS011;68429;50.958;3.592;2023-11-19T08:35:28;39.63;;;7.97;;
54167;SDS011;68429;50.958;3.592;2023-11-19T08:37:54;52.78;;;8.50;;
54167;SDS011;68429;50.958;3.592;2023-11-19T08:40:20;44.47;;;8.45;;
54167;SDS011;68429;50.958;3.592;2023-11-19T08:42:46;43.22;;;7.50;;
54167;SDS011;68429;50.958;3.592;2023-11-19T08:45:11;44.90;;;7.65;;
54167;SDS011;68429;50.958;3.592;2023-11-19T08:47:37;49.30;;;7.85;;
54167;SDS011;68429;50.958;3.592;2023-11-19T08:50:03;42.95;;;8.35;;
54167;SDS011;68429;50.958;3.592;2023-11-19T08:52:29;38.78;;;6.47;;
54167;SDS011;68429;50.958;3.592;2023-11-19T08:54:55;36.70;;;7.72;;
54167;SDS011;68429;50.958;3.592;2023-11-19T08:57:22;47.13;;;8.50;;
54167;SDS011;68429;50.958;3.592;2023-11-19T08:59:47;45.97;;;7.35;;
54167;SDS011;68429;50.958;3.592;2023-11-19T09:02:13;43.10;;;8.45;;
54167;SDS011;68429;50.958;3.592;2023-11-19T09:04:39;43.50;;;6.68;;
54167;SDS011;68429;50.958;3.592;2023-11-19T09:07:05;40.30;;;7.13;;
54167;SDS011;68429;50.958;3.592;2023-11-19T09:09:37;36.58;;;6.88;;
54167;SDS011;68429;50.958;3.592;2023-11-19T09:12:03;38.30;;;7.05;;
54167;SDS011;68429;50.958;3.592;2023-11-19T09:14:29;36.17;;;6.15;;
54167;SDS011;68429;50.958;3.592;2023-11-19T09:16:55;35.67;;;6.30;;
54167;SDS011;68429;50.958;3.592;2023-11-19T09:19:21;35.35;;;6.20;;
54167;SDS011;68429;50.958;3.592;2023-11-19T09:21:47;32.85;;;6.20;;
54167;SDS011;68429;50.958;3.592;2023-11-19T09:24:14;42.20;;;6.53;;
54167;SDS011;68429;50.958;3.592;2023-11-19T09:26:40;36.17;;;6.53;;
54167;SDS011;68429;50.958;3.592;2023-11-19T09:29:07;32.35;;;5.82;;
54167;SDS011;68429;50.958;3.592;2023-11-19T09:31:33;27.27;;;6.03;;
54167;SDS011;68429;50.958;3.592;2023-11-19T09:33:59;25.20;;;4.72;;
54167;SDS011;68429;50.958;3.592;2023-11-19T09:36:25;32.63;;;6.22;;
54167;SDS011;68429;50.958;3.592;2023-11-19T09:38:53;31.60;;;5.88;;
54167;SDS011;68429;50.958;3.592;2023-11-19T09:41:19;33.92;;;5.82;;
54167;SDS011;68429;50.958;3.592;2023-11-19T09:43:45;39.85;;;6.43;;
54167;SDS011;68429;50.958;3.592;2023-11-19T09:46:12;29.83;;;5.35;;
54167;SDS011;68429;50.958;3.592;2023-11-19T09:48:40;38.00;;;5.53;;
54167;SDS011;68429;50.958;3.592;2023-11-19T09:51:07;31.80;;;5.82;;
54167;SDS011;68429;50.958;3.592;2023-11-19T09:53:36;33.30;;;5.65;;
54167;SDS011;68429;50.958;3.592;2023-11-19T09:56:03;38.55;;;6.15;;
54167;SDS011;68429;50.958;3.592;2023-11-19T10:00:58;32.17;;;5.63;;
54167;SDS011;68429;50.958;3.592;2023-11-19T10:03:26;26.80;;;5.03;;
54167;SDS011;68429;50.958;3.592;2023-11-19T10:05:55;37.60;;;6.43;;
54167;SDS011;68429;50.958;3.592;2023-11-19T10:08:21;39.70;;;7.13;;
54167;SDS011;68429;50.958;3.592;2023-11-19T10:10:47;47.58;;;6.68;;
54167;SDS011;68429;50.958;3.592;2023-11-19T10:13:14;41.05;;;5.93;;
54167;SDS011;68429;50.958;3.592;2023-11-19T10:15:39;45.75;;;7.18;;
54167;SDS011;68429;50.958;3.592;2023-11-19T10:18:06;43.40;;;7.22;;
54167;SDS011;68429;50.958;3.592;2023-11-19T10:20:41;45.55;;;6.95;;
54167;SDS011;68429;50.958;3.592;2023-11-19T10:23:07;41.75;;;7.18;;
54167;SDS011;68429;50.958;3.592;2023-11-19T10:25:33;47.08;;;7.28;;
54167;SDS011;68429;50.958;3.592;2023-11-19T10:27:59;41.35;;;6.68;;
54167;SDS011;68429;50.958;3.592;2023-11-19T10:30:26;38.42;;;6.97;;
54167;SDS011;68429;50.958;3.592;2023-11-19T10:33:03;39.53;;;6.60;;
54167;SDS011;68429;50.958;3.592;2023-11-19T10:35:36;42.33;;;7.38;;
54167;SDS011;68429;50.958;3.592;2023-11-19T10:38:18;36.47;;;5.78;;
54167;SDS011;68429;50.958;3.592;2023-11-19T10:40:45;37.60;;;7.18;;
54167;SDS011;68429;50.958;3.592;2023-11-19T10:43:10;39.40;;;7.63;;
54167;SDS011;68429;50.958;3.592;2023-11-19T10:45:37;34.42;;;6.50;;
54167;SDS011;68429;50.958;3.592;2023-11-19T10:48:04;42.05;;;7.43;;
54167;SDS011;68429;50.958;3.592;2023-11-19T10:50:37;34.13;;;6.10;;
54167;SDS011;68429;50.958;3.592;2023-11-19T10:53:04;42.40;;;7.15;;
54167;SDS011;68429;50.958;3.592;2023-11-19T10:55:31;29.00;;;5.45;;
54167;SDS011;68429;50.958;3.592;2023-11-19T10:58:00;43.47;;;7.03;;
54167;SDS011;68429;50.958;3.592;2023-11-19T11:00:27;33.90;;;5.57;;
54167;SDS011;68429;50.958;3.592;2023-11-19T11:03:00;34.58;;;5.43;;
54167;SDS011;68429;50.958;3.592;2023-11-19T11:05:27;30.17;;;6.68;;
54167;SDS011;68429;50.958;3.592;2023-11-19T11:08:00;29.85;;;6.20;;
54167;SDS011;68429;50.958;3.592;2023-11-19T11:10:26;36.60;;;6.63;;
54167;SDS011;68429;50.958;3.592;2023-11-19T11:12:52;34.83;;;6.35;;
54167;SDS011;68429;50.958;3.592;2023-11-19T11:15:26;30.92;;;6.90;;
54167;SDS011;68429;50.958;3.592;2023-11-19T11:17:55;33.05;;;6.13;;
54167;SDS011;68429;50.958;3.592;2023-11-19T11:20:25;41.38;;;6.50;;
54167;SDS011;68429;50.958;3.592;2023-11-19T11:26:16;40.13;;;7.60;;
54167;SDS011;68429;50.958;3.592;2023-11-19T11:35:12;38.13;;;7.13;;
54167;SDS011;68429;50.958;3.592;2023-11-19T11:37:49;33.65;;;6.55;;
54167;SDS011;68429;50.958;3.592;2023-11-19T11:40:18;44.15;;;7.72;;
54167;SDS011;68429;50.958;3.592;2023-11-19T11:42:46;38.63;;;6.97;;
54167;SDS011;68429;50.958;3.592;2023-11-19T11:45:13;36.80;;;7.03;;
54167;SDS011;68429;50.958;3.592;2023-11-19T11:55:27;40.65;;;6.57;;
54167;SDS011;68429;50.958;3.592;2023-11-19T11:57:56;28.77;;;5.45;;
54167;SDS011;68429;50.958;3.592;2023-11-19T12:00:32;27.92;;;5.28;;
54167;SDS011;68429;50.958;3.592;2023-11-19T12:03:03;27.67;;;5.28;;
54167;SDS011;68429;50.958;3.592;2023-11-19T12:05:30;29.08;;;5.65;;
54167;SDS011;68429;50.958;3.592;2023-11-19T12:08:02;24.48;;;4.55;;
54167;SDS011;68429;50.958;3.592;2023-11-19T12:10:32;27.70;;;5.15;;
54167;SDS011;68429;50.958;3.592;2023-11-19T12:13:03;23.50;;;4.75;;
54167;SDS011;68429;50.958;3.592;2023-11-19T12:17:58;33.10;;;6.32;;
54167;SDS011;68429;50.958;3.592;2023-11-19T12:20:24;30.85;;;5.30;;
54167;SDS011;68429;50.958;3.592;2023-11-19T12:22:51;26.20;;;5.55;;
54167;SDS011;68429;50.958;3.592;2023-11-19T12:25:18;28.40;;;5.15;;
54167;SDS011;68429;50.958;3.592;2023-11-19T12:27:45;33.45;;;5.90;;
54167;SDS011;68429;50.958;3.592;2023-11-19T12:30:16;36.20;;;7.00;;
54167;SDS011;68429;50.958;3.592;2023-11-19T12:32:45;38.63;;;5.85;;
54167;SDS011;68429;50.958;3.592;2023-11-19T12:35:11;38.67;;;7.07;;
54167;SDS011;68429;50.958;3.592;2023-11-19T12:37:47;38.63;;;6.55;;
54167;SDS011;68429;50.958;3.592;2023-11-19T12:40:17;28.25;;;6.13;;
54167;SDS011;68429;50.958;3.592;2023-11-19T12:42:48;42.38;;;6.78;;
54167;SDS011;68429;50.958;3.592;2023-11-19T12:45:15;40.03;;;5.50;;
54167;SDS011;68429;50.958;3.592;2023-11-19T12:47:41;39.17;;;6.20;;
54167;SDS011;68429;50.958;3.592;2023-11-19T12:50:09;39.95;;;7.15;;
54167;SDS011;68429;50.958;3.592;2023-11-19T12:52:35;23.95;;;5.07;;
54167;SDS011;68429;50.958;3.592;2023-11-19T12:55:02;34.92;;;6.13;;
54167;SDS011;68429;50.958;3.592;2023-11-19T12:57:41;36.85;;;7.20;;
54167;SDS011;68429;50.958;3.592;2023-11-19T13:00:17;32.53;;;5.88;;
54167;SDS011;68429;50.958;3.592;2023-11-19T13:02:47;26.40;;;5.78;;
54167;SDS011;68429;50.958;3.592;2023-11-19T13:05:22;36.60;;;6.63;;
54167;SDS011;68429;50.958;3.592;2023-11-19T13:08:05;32.45;;;5.72;;
54167;SDS011;68429;50.958;3.592;2023-11-19T13:10:32;30.13;;;5.55;;
54167;SDS011;68429;50.958;3.592;2023-11-19T13:15:32;29.30;;;5.43;;
54167;SDS011;68429;50.958;3.592;2023-11-19T13:17:58;29.13;;;5.97;;
54167;SDS011;68429;50.958;3.592;2023-11-19T13:20:24;43.33;;;6.97;;
54167;SDS011;68429;50.958;3.592;2023-11-19T13:22:54;48.67;;;8.75;;
54167;SDS011;68429;50.958;3.592;2023-11-19T13:25:23;37.80;;;6.88;;
54167;SDS011;68429;50.958;3.592;2023-11-19T13:27:48;45.80;;;9.68;;
54167;SDS011;68429;50.958;3.592;2023-11-19T13:30:14;51.42;;;6.90;;
54167;SDS011;68429;50.958;3.592;2023-11-19T13:32:41;38.28;;;5.88;;
54167;SDS011;68429;50.958;3.592;2023-11-19T13:35:08;32.17;;;5.25;;
54167;SDS011;68429;50.958;3.592;2023-11-19T13:37:34;35.70;;;5.43;;
54167;SDS011;68429;50.958;3.592;2023-11-19T13:40:00;39.50;;;6.63;;
54167;SDS011;68429;50.958;3.592;2023-11-19T13:42:26;51.75;;;7.65;;
54167;SDS011;68429;50.958;3.592;2023-11-19T13:44:52;35.38;;;5.50;;
54167;SDS011;68429;50.958;3.592;2023-11-19T13:47:18;44.47;;;7.68;;
54167;SDS011;68429;50.958;3.592;2023-11-19T13:49:44;38.65;;;6.68;;
54167;SDS011;68429;50.958;3.592;2023-11-19T13:52:10;28.08;;;5.38;;
54167;SDS011;68429;50.958;3.592;2023-11-19T13:54:36;36.75;;;6.40;;
54167;SDS011;68429;50.958;3.592;2023-11-19T13:57:02;34.15;;;5.70;;
54167;SDS011;68429;50.958;3.592;2023-11-19T13:59:29;28.10;;;4.55;;
54167;SDS011;68429;50.958;3.592;2023-11-19T14:01:58;44.53;;;6.63;;
54167;SDS011;68429;50.958;3.592;2023-11-19T14:04:24;34.42;;;7.55;;
54167;SDS011;68429;50.958;3.592;2023-11-19T14:06:50;40.05;;;6.85;;
54167;SDS011;68429;50.958;3.592;2023-11-19T14:09:16;34.80;;;6.00;;
54167;SDS011;68429;50.958;3.592;2023-11-19T14:11:42;32.80;;;6.13;;
54167;SDS011;68429;50.958;3.592;2023-11-19T14:14:08;33.75;;;5.45;;
54167;SDS011;68429;50.958;3.592;2023-11-19T14:16:34;40.85;;;6.10;;
54167;SDS011;68429;50.958;3.592;2023-11-19T14:19:00;35.35;;;6.45;;
54167;SDS011;68429;50.958;3.592;2023-11-19T14:21:25;48.95;;;7.15;;
54167;SDS011;68429;50.958;3.592;2023-11-19T14:23:51;26.40;;;4.60;;
54167;SDS011;68429;50.958;3.592;2023-11-19T14:26:18;38.53;;;6.47;;
54167;SDS011;68429;50.958;3.592;2023-11-19T14:28:43;36.60;;;6.20;;
54167;SDS011;68429;50.958;3.592;2023-11-19T14:31:09;34.60;;;5.53;;
54167;SDS011;68429;50.958;3.592;2023-11-19T14:33:35;39.65;;;6.95;;
54167;SDS011;68429;50.958;3.592;2023-11-19T14:36:01;40.10;;;6.07;;
54167;SDS011;68429;50.958;3.592;2023-11-19T14:38:27;34.10;;;5.85;;
54167;SDS011;68429;50.958;3.592;2023-11-19T14:40:52;32.40;;;6.10;;
54167;SDS011;68429;50.958;3.592;2023-11-19T14:43:19;38.05;;;5.20;;
54167;SDS011;68429;50.958;3.592;2023-11-19T14:45:45;36.35;;;5.32;;
54167;SDS011;68429;50.958;3.592;2023-11-19T14:48:11;29.05;;;5.38;;
54167;SDS011;68429;50.958;3.592;2023-11-19T14:50:36;37.25;;;6.07;;
54167;SDS011;68429;50.958;3.592;2023-11-19T14:53:02;43.38;;;7.88;;
54167;SDS011;68429;50.958;3.592;2023-11-19T14:55:28;31.52;;;6.38;;
54167;SDS011;68429;50.958;3.592;2023-11-19T14:57:54;41.22;;;6.22;;
54167;SDS011;68429;50.958;3.592;2023-11-19T15:00:21;29.30;;;4.70;;
54167;SDS011;68429;50.958;3.592;2023-11-19T15:02:46;30.52;;;6.55;;